sensor_id;sensor_type;location;lat;lon;timestamp;pressure;altitude;pressure_sealevel;temperature;humidity
50682;BME280;36779;52.168;20.878;2023-03-15T00:01:37;98697.02;;;8.51;71.30
50682;BME280;36779;52.168;20.878;2023-03-15T00:04:07;98704.09;;;8.53;71.43
50682;BME280;36779;52.168;20.878;2023-03-15T00:06:36;98705.77;;;8.55;71.27
50682;BME280;36779;52.168;20.878;2023-03-15T00:09:06;98712.10;;;8.56;71.25
50682;BME280;36779;52.168;20.878;2023-03-15T00:11:34;98718.52;;;8.57;71.42
50682;BME280;36779;52.168;20.878;2023-03-15T00:14:04;98718.13;;;8.57;71.51
50682;BME280;36779;52.168;20.878;2023-03-15T00:16:34;98722.06;;;8.58;71.48
50682;BME280;36779;52.168;20.878;2023-03-15T00:19:02;98727.06;;;8.59;71.39
50682;BME280;36779;52.168;20.878;2023-03-15T00:21:33;98732.84;;;8.61;71.35
50682;BME280;36779;52.168;20.878;2023-03-15T00:24:04;98736.05;;;8.64;71.53
50682;BME280;36779;52.168;20.878;2023-03-15T00:26:35;98742.78;;;8.67;71.55
50682;BME280;36779;52.168;20.878;2023-03-15T00:29:05;98748.81;;;8.70;71.44
50682;BME280;36779;52.168;20.878;2023-03-15T00:31:34;98765.02;;;8.72;71.58
50682;BME280;36779;52.168;20.878;2023-03-15T00:34:05;98780.06;;;8.72;71.55
50682;BME280;36779;52.168;20.878;2023-03-15T00:36:33;98807.89;;;8.67;71.34
50682;BME280;36779;52.168;20.878;2023-03-15T00:39:05;98827.58;;;8.56;71.10
50682;BME280;36779;52.168;20.878;2023-03-15T00:41:34;98845.23;;;8.33;70.71
50682;BME280;36779;52.168;20.878;2023-03-15T00:44:05;98865.00;;;8.00;70.26
50682;BME280;36779;52.168;20.878;2023-03-15T00:46:37;98880.79;;;7.70;70.30
50682;BME280;36779;52.168;20.878;2023-03-15T00:49:06;98895.47;;;7.40;69.98
50682;BME280;36779;52.168;20.878;2023-03-15T00:51:35;98908.30;;;7.06;70.01
50682;BME280;36779;52.168;20.878;2023-03-15T00:54:06;98932.71;;;6.73;69.78
50682;BME280;36779;52.168;20.878;2023-03-15T00:56:37;98945.78;;;6.44;69.84
50682;BME280;36779;52.168;20.878;2023-03-15T00:59:05;98961.98;;;6.15;69.78
50682;BME280;36779;52.168;20.878;2023-03-15T01:01:35;98973.00;;;5.90;69.82
50682;BME280;36779;52.168;20.878;2023-03-15T01:04:06;98994.96;;;5.66;69.84
50682;BME280;36779;52.168;20.878;2023-03-15T01:06:37;99000.58;;;5.43;69.87
50682;BME280;36779;52.168;20.878;2023-03-15T01:09:12;99014.05;;;5.22;69.92
50682;BME280;36779;52.168;20.878;2023-03-15T01:11:43;99019.73;;;5.02;69.89
50682;BME280;36779;52.168;20.878;2023-03-15T01:14:12;99031.09;;;4.77;69.76
50682;BME280;36779;52.168;20.878;2023-03-15T01:16:41;99036.45;;;4.57;69.87
50682;BME280;36779;52.168;20.878;2023-03-15T01:19:11;99049.36;;;4.41;70.02
50682;BME280;36779;52.168;20.878;2023-03-15T01:21:40;99058.56;;;4.28;70.17
50682;BME280;36779;52.168;20.878;2023-03-15T01:24:13;99059.55;;;4.17;70.18
50682;BME280;36779;52.168;20.878;2023-03-15T01:26:42;99061.00;;;4.04;70.13
50682;BME280;36779;52.168;20.878;2023-03-15T01:29:15;99072.27;;;3.88;70.05
50682;BME280;36779;52.168;20.878;2023-03-15T01:31:45;99082.73;;;3.71;70.09
50682;BME280;36779;52.168;20.878;2023-03-15T01:34:16;99093.02;;;3.57;70.29
50682;BME280;36779;52.168;20.878;2023-03-15T01:36:45;99104.20;;;3.48;70.37
50682;BME280;36779;52.168;20.878;2023-03-15T01:39:17;99108.02;;;3.46;70.56
50682;BME280;36779;52.168;20.878;2023-03-15T01:41:52;99115.90;;;3.44;70.69
50682;BME280;36779;52.168;20.878;2023-03-15T01:44:44;99120.73;;;3.40;70.64
50682;BME280;36779;52.168;20.878;2023-03-15T01:47:18;99130.09;;;3.29;70.57
50682;BME280;36779;52.168;20.878;2023-03-15T01:49:50;99153.86;;;3.21;70.66
50682;BME280;36779;52.168;20.878;2023-03-15T01:52:30;99173.32;;;3.17;70.69
50682;BME280;36779;52.168;20.878;2023-03-15T01:55:09;99181.04;;;3.09;70.73
50682;BME280;36779;52.168;20.878;2023-03-15T01:57:50;99193.81;;;3.03;70.74
50682;BME280;36779;52.168;20.878;2023-03-15T02:00:31;99203.89;;;3.03;70.89
50682;BME280;36779;52.168;20.878;2023-03-15T02:03:07;99211.61;;;3.01;70.92
50682;BME280;36779;52.168;20.878;2023-03-15T02:05:41;99220.86;;;2.99;70.95
50682;BME280;36779;52.168;20.878;2023-03-15T02:08:17;99235.84;;;3.03;71.09
50682;BME280;36779;52.168;20.878;2023-03-15T02:10:50;99243.85;;;3.03;70.93
50682;BME280;36779;52.168;20.878;2023-03-15T02:13:21;99251.65;;;3.02;71.03
50682;BME280;36779;52.168;20.878;2023-03-15T02:15:52;99263.19;;;3.01;71.01
50682;BME280;36779;52.168;20.878;2023-03-15T02:18:27;99265.41;;;2.96;70.99
50682;BME280;36779;52.168;20.878;2023-03-15T02:21:05;99278.70;;;2.93;71.15
50682;BME280;36779;52.168;20.878;2023-03-15T02:23:36;99286.79;;;2.93;71.19
50682;BME280;36779;52.168;20.878;2023-03-15T02:26:15;99287.65;;;2.93;71.11
50682;BME280;36779;52.168;20.878;2023-03-15T02:28:47;99302.52;;;2.92;71.09
50682;BME280;36779;52.168;20.878;2023-03-15T02:31:16;99305.36;;;2.87;71.11
50682;BME280;36779;52.168;20.878;2023-03-15T02:33:52;99313.50;;;2.84;71.16
50682;BME280;36779;52.168;20.878;2023-03-15T02:36:24;99316.88;;;2.80;71.06
50682;BME280;36779;52.168;20.878;2023-03-15T02:38:55;99329.77;;;2.78;71.10
50682;BME280;36779;52.168;20.878;2023-03-15T02:41:27;99338.23;;;2.77;71.12
50682;BME280;36779;52.168;20.878;2023-03-15T02:44:07;99339.85;;;2.77;71.14
50682;BME280;36779;52.168;20.878;2023-03-15T02:46:39;99344.73;;;2.77;71.12
50682;BME280;36779;52.168;20.878;2023-03-15T02:49:15;99355.11;;;2.76;71.20
50682;BME280;36779;52.168;20.878;2023-03-15T02:51:44;99361.70;;;2.75;71.20
50682;BME280;36779;52.168;20.878;2023-03-15T02:54:20;99369.61;;;2.73;71.24
50682;BME280;36779;52.168;20.878;2023-03-15T02:56:49;99370.75;;;2.72;71.15
50682;BME280;36779;52.168;20.878;2023-03-15T02:59:20;99373.14;;;2.73;71.12
50682;BME280;36779;52.168;20.878;2023-03-15T03:01:54;99382.26;;;2.73;71.30
50682;BME280;36779;52.168;20.878;2023-03-15T03:04:23;99394.16;;;2.75;71.21
50682;BME280;36779;52.168;20.878;2023-03-15T03:06:57;99410.34;;;2.79;71.31
50682;BME280;36779;52.168;20.878;2023-03-15T03:09:33;99416.11;;;2.79;71.07
50682;BME280;36779;52.168;20.878;2023-03-15T03:12:11;99417.86;;;2.79;71.29
50682;BME280;36779;52.168;20.878;2023-03-15T03:14:41;99421.10;;;2.76;71.25
50682;BME280;36779;52.168;20.878;2023-03-15T03:17:16;99426.69;;;2.75;71.23
50682;BME280;36779;52.168;20.878;2023-03-15T03:19:46;99432.71;;;2.76;71.34
50682;BME280;36779;52.168;20.878;2023-03-15T03:22:15;99438.86;;;2.78;71.28
50682;BME280;36779;52.168;20.878;2023-03-15T03:24:45;99448.40;;;2.81;71.40
50682;BME280;36779;52.168;20.878;2023-03-15T03:27:17;99452.34;;;2.84;71.25
50682;BME280;36779;52.168;20.878;2023-03-15T03:29:47;99455.58;;;2.86;71.27
50682;BME280;36779;52.168;20.878;2023-03-15T03:32:21;99460.83;;;2.84;71.23
50682;BME280;36779;52.168;20.878;2023-03-15T03:34:50;99467.66;;;2.83;71.21
50682;BME280;36779;52.168;20.878;2023-03-15T03:37:21;99474.03;;;2.85;71.40
50682;BME280;36779;52.168;20.878;2023-03-15T03:40:00;99476.73;;;2.86;71.47
50682;BME280;36779;52.168;20.878;2023-03-15T03:42:29;99479.48;;;2.87;71.45
50682;BME280;36779;52.168;20.878;2023-03-15T03:44:58;99484.90;;;2.89;71.46
50682;BME280;36779;52.168;20.878;2023-03-15T03:47:57;99483.53;;;2.89;71.37
50682;BME280;36779;52.168;20.878;2023-03-15T03:50:29;99490.05;;;2.88;71.30
50682;BME280;36779;52.168;20.878;2023-03-15T03:53:02;99496.80;;;2.90;71.29
50682;BME280;36779;52.168;20.878;2023-03-15T03:55:34;99507.11;;;2.92;71.45
50682;BME280;36779;52.168;20.878;2023-03-15T03:58:02;99510.26;;;2.96;71.35
50682;BME280;36779;52.168;20.878;2023-03-15T04:00:46;99516.89;;;2.98;71.49
50682;BME280;36779;52.168;20.878;2023-03-15T04:03:15;99516.48;;;3.01;71.41
50682;BME280;36779;52.168;20.878;2023-03-15T04:05:49;99522.58;;;3.02;71.53
50682;BME280;36779;52.168;20.878;2023-03-15T04:08:25;99527.60;;;3.02;71.47
50682;BME280;36779;52.168;20.878;2023-03-15T04:10:56;99532.41;;;3.02;71.50
50682;BME280;36779;52.168;20.878;2023-03-15T04:13:35;99538.65;;;2.99;71.36
50682;BME280;36779;52.168;20.878;2023-03-15T04:16:10;99544.98;;;2.94;71.37
50682;BME280;36779;52.168;20.878;2023-03-15T04:19:05;99549.60;;;2.92;71.33
50682;BME280;36779;52.168;20.878;2023-03-15T04:21:35;99550.83;;;2.90;71.38
50682;BME280;36779;52.168;20.878;2023-03-15T04:24:37;99554.38;;;2.90;71.29
50682;BME280;36779;52.168;20.878;2023-03-15T04:27:16;99562.29;;;2.89;71.44
50682;BME280;36779;52.168;20.878;2023-03-15T04:30:02;99560.18;;;2.91;71.35
50682;BME280;36779;52.168;20.878;2023-03-15T04:32:44;99567.26;;;2.93;71.47
50682;BME280;36779;52.168;20.878;2023-03-15T04:35:19;99574.98;;;2.93;71.50
50682;BME280;36779;52.168;20.878;2023-03-15T04:38:11;99577.50;;;2.92;71.36
50682;BME280;36779;52.168;20.878;2023-03-15T04:40:59;99574.75;;;2.89;71.46
50682;BME280;36779;52.168;20.878;2023-03-15T04:43:49;99582.47;;;2.85;71.50
50682;BME280;36779;52.168;20.878;2023-03-15T04:46:36;99587.05;;;2.83;71.36
50682;BME280;36779;52.168;20.878;2023-03-15T04:49:09;99586.86;;;2.81;71.27
50682;BME280;36779;52.168;20.878;2023-03-15T04:52:06;99590.95;;;2.80;71.42
50682;BME280;36779;52.168;20.878;2023-03-15T04:55:20;99597.86;;;2.82;71.44
50682;BME280;36779;52.168;20.878;2023-03-15T04:58:11;99598.19;;;2.82;71.48
50682;BME280;36779;52.168;20.878;2023-03-15T05:00:48;99599.77;;;2.82;71.55
50682;BME280;36779;52.168;20.878;2023-03-15T05:03:28;99606.08;;;2.82;71.47
50682;BME280;36779;52.168;20.878;2023-03-15T05:06:29;99616.89;;;2.83;71.61
50682;BME280;36779;52.168;20.878;2023-03-15T05:09:18;99619.14;;;2.83;71.53
50682;BME280;36779;52.168;20.878;2023-03-15T05:12:13;99620.46;;;2.80;71.48
50682;BME280;36779;52.168;20.878;2023-03-15T05:15:02;99623.31;;;2.75;71.45
50682;BME280;36779;52.168;20.878;2023-03-15T05:18:10;99628.39;;;2.69;71.37
50682;BME280;36779;52.168;20.878;2023-03-15T05:21:01;99643.32;;;2.65;71.37
50682;BME280;36779;52.168;20.878;2023-03-15T05:23:52;99651.27;;;2.65;71.36
50682;BME280;36779;52.168;20.878;2023-03-15T05:26:58;99657.80;;;2.66;71.33
50682;BME280;36779;52.168;20.878;2023-03-15T05:29:43;99661.90;;;2.70;71.50
50682;BME280;36779;52.168;20.878;2023-03-15T05:32:17;99665.13;;;2.73;71.51
50682;BME280;36779;52.168;20.878;2023-03-15T05:35:08;99661.32;;;2.74;71.37
50682;BME280;36779;52.168;20.878;2023-03-15T05:37:55;99661.02;;;2.74;71.37
50682;BME280;36779;52.168;20.878;2023-03-15T05:40:55;99662.83;;;2.73;71.33
50682;BME280;36779;52.168;20.878;2023-03-15T05:43:50;99671.09;;;2.73;71.41
50682;BME280;36779;52.168;20.878;2023-03-15T05:46:37;99675.58;;;2.76;71.50
50682;BME280;36779;52.168;20.878;2023-03-15T05:49:33;99685.71;;;2.80;71.40
50682;BME280;36779;52.168;20.878;2023-03-15T05:52:23;99683.33;;;2.84;71.52
50682;BME280;36779;52.168;20.878;2023-03-15T05:55:12;99698.27;;;2.86;71.50
50682;BME280;36779;52.168;20.878;2023-03-15T05:58:10;99712.74;;;2.82;71.40
50682;BME280;36779;52.168;20.878;2023-03-15T06:01:11;99716.52;;;2.79;71.29
50682;BME280;36779;52.168;20.878;2023-03-15T06:04:07;99724.00;;;2.76;71.40
50682;BME280;36779;52.168;20.878;2023-03-15T06:06:36;99724.44;;;2.75;71.29
50682;BME280;36779;52.168;20.878;2023-03-15T06:09:06;99722.13;;;2.73;71.29
50682;BME280;36779;52.168;20.878;2023-03-15T06:11:37;99725.14;;;2.73;71.23
50682;BME280;36779;52.168;20.878;2023-03-15T06:14:07;99726.94;;;2.72;71.36
50682;BME280;36779;52.168;20.878;2023-03-15T06:16:55;99733.40;;;2.69;71.26
50682;BME280;36779;52.168;20.878;2023-03-15T06:19:25;99739.83;;;2.65;71.22
50682;BME280;36779;52.168;20.878;2023-03-15T06:21:55;99742.29;;;2.65;71.34
50682;BME280;36779;52.168;20.878;2023-03-15T06:24:32;99744.15;;;2.70;71.40
50682;BME280;36779;52.168;20.878;2023-03-15T06:27:01;99752.23;;;2.76;71.28
50682;BME280;36779;52.168;20.878;2023-03-15T06:29:33;99760.35;;;2.80;71.44
50682;BME280;36779;52.168;20.878;2023-03-15T06:32:07;99764.60;;;2.83;71.45
50682;BME280;36779;52.168;20.878;2023-03-15T06:34:37;99772.00;;;2.85;71.35
50682;BME280;36779;52.168;20.878;2023-03-15T06:37:07;99778.91;;;2.87;71.47
50682;BME280;36779;52.168;20.878;2023-03-15T06:39:38;99789.09;;;2.91;71.36
50682;BME280;36779;52.168;20.878;2023-03-15T06:42:08;99803.96;;;2.95;71.37
50682;BME280;36779;52.168;20.878;2023-03-15T06:44:39;99810.26;;;2.98;71.45
50682;BME280;36779;52.168;20.878;2023-03-15T06:47:11;99821.53;;;3.01;71.45
50682;BME280;36779;52.168;20.878;2023-03-15T06:49:42;99823.73;;;3.07;71.39
50682;BME280;36779;52.168;20.878;2023-03-15T06:52:13;99825.48;;;3.16;71.50
50682;BME280;36779;52.168;20.878;2023-03-15T06:54:43;99827.29;;;3.23;71.39
50682;BME280;36779;52.168;20.878;2023-03-15T06:57:13;99837.77;;;3.26;71.32
50682;BME280;36779;52.168;20.878;2023-03-15T06:59:42;99852.52;;;3.30;71.39
50682;BME280;36779;52.168;20.878;2023-03-15T07:02:14;99858.55;;;3.40;71.46
50682;BME280;36779;52.168;20.878;2023-03-15T07:04:44;99866.66;;;3.45;71.44
50682;BME280;36779;52.168;20.878;2023-03-15T07:07:13;99862.92;;;3.50;71.45
50682;BME280;36779;52.168;20.878;2023-03-15T07:09:43;99860.96;;;3.51;71.34
50682;BME280;36779;52.168;20.878;2023-03-15T07:12:16;99869.04;;;3.51;71.40
50682;BME280;36779;52.168;20.878;2023-03-15T07:14:45;99878.63;;;3.54;71.30
50682;BME280;36779;52.168;20.878;2023-03-15T07:17:16;99877.27;;;3.56;71.16
50682;BME280;36779;52.168;20.878;2023-03-15T07:19:45;99874.67;;;3.53;70.99
50682;BME280;36779;52.168;20.878;2023-03-15T07:22:24;99872.34;;;3.49;71.00
50682;BME280;36779;52.168;20.878;2023-03-15T07:24:55;99872.63;;;3.50;71.06
50682;BME280;36779;52.168;20.878;2023-03-15T07:27:23;99875.17;;;3.57;71.26
50682;BME280;36779;52.168;20.878;2023-03-15T07:29:52;99879.64;;;3.58;71.01
50682;BME280;36779;52.168;20.878;2023-03-15T07:32:22;99878.10;;;3.56;71.04
50682;BME280;36779;52.168;20.878;2023-03-15T07:34:52;99879.66;;;3.59;70.99
50682;BME280;36779;52.168;20.878;2023-03-15T07:37:26;99878.60;;;3.63;71.01
50682;BME280;36779;52.168;20.878;2023-03-15T07:39:55;99877.47;;;3.66;70.99
50682;BME280;36779;52.168;20.878;2023-03-15T07:42:26;99878.95;;;3.69;70.98
50682;BME280;36779;52.168;20.878;2023-03-15T07:45:01;99876.90;;;3.72;71.08
50682;BME280;36779;52.168;20.878;2023-03-15T07:47:33;99882.73;;;3.78;71.16
50682;BME280;36779;52.168;20.878;2023-03-15T07:50:03;99883.40;;;3.81;71.06
50682;BME280;36779;52.168;20.878;2023-03-15T07:52:33;99891.65;;;3.81;71.11
50682;BME280;36779;52.168;20.878;2023-03-15T07:55:11;99895.59;;;3.80;70.94
50682;BME280;36779;52.168;20.878;2023-03-15T07:57:40;99903.34;;;3.84;70.97
50682;BME280;36779;52.168;20.878;2023-03-15T08:00:12;99910.42;;;3.93;71.16
50682;BME280;36779;52.168;20.878;2023-03-15T08:02:42;99916.30;;;4.09;71.18
50682;BME280;36779;52.168;20.878;2023-03-15T08:05:12;99921.15;;;4.14;71.07
50682;BME280;36779;52.168;20.878;2023-03-15T08:07:43;99924.16;;;4.22;71.08
50682;BME280;36779;52.168;20.878;2023-03-15T08:10:27;99928.52;;;4.33;71.03
50682;BME280;36779;52.168;20.878;2023-03-15T08:13:04;99935.13;;;4.40;71.12
50682;BME280;36779;52.168;20.878;2023-03-15T08:15:43;99945.86;;;4.45;71.02
50682;BME280;36779;52.168;20.878;2023-03-15T08:18:13;99947.64;;;4.51;71.13
50682;BME280;36779;52.168;20.878;2023-03-15T08:20:47;99951.33;;;4.71;71.39
50682;BME280;36779;52.168;20.878;2023-03-15T08:23:16;99954.84;;;4.93;71.34
50682;BME280;36779;52.168;20.878;2023-03-15T08:25:45;99957.28;;;5.17;71.44
50682;BME280;36779;52.168;20.878;2023-03-15T08:28:14;99967.45;;;5.30;71.15
50682;BME280;36779;52.168;20.878;2023-03-15T08:30:44;99971.78;;;5.42;71.16
50682;BME280;36779;52.168;20.878;2023-03-15T08:33:14;99971.98;;;5.46;70.82
50682;BME280;36779;52.168;20.878;2023-03-15T08:35:45;99979.94;;;5.41;70.74
50682;BME280;36779;52.168;20.878;2023-03-15T08:38:19;99983.77;;;5.32;70.41
50682;BME280;36779;52.168;20.878;2023-03-15T08:40:48;99984.33;;;5.24;70.35
50682;BME280;36779;52.168;20.878;2023-03-15T08:43:17;99982.88;;;5.17;70.24
50682;BME280;36779;52.168;20.878;2023-03-15T08:45:47;99988.38;;;5.14;70.53
50682;BME280;36779;52.168;20.878;2023-03-15T08:48:32;100005.70;;;5.14;70.47
50682;BME280;36779;52.168;20.878;2023-03-15T08:51:06;100008.08;;;5.07;70.23
50682;BME280;36779;52.168;20.878;2023-03-15T08:53:37;100013.69;;;5.03;70.29
50682;BME280;36779;52.168;20.878;2023-03-15T08:56:06;100012.36;;;5.04;70.39
50682;BME280;36779;52.168;20.878;2023-03-15T08:58:36;100020.93;;;5.09;70.46
50682;BME280;36779;52.168;20.878;2023-03-15T09:01:10;100024.88;;;5.18;70.57
50682;BME280;36779;52.168;20.878;2023-03-15T09:03:40;100026.94;;;5.25;70.59
50682;BME280;36779;52.168;20.878;2023-03-15T09:06:09;100026.30;;;5.24;70.26
50682;BME280;36779;52.168;20.878;2023-03-15T09:08:38;100026.24;;;5.10;70.06
50682;BME280;36779;52.168;20.878;2023-03-15T09:11:08;100029.61;;;5.08;70.15
50682;BME280;36779;52.168;20.878;2023-03-15T09:13:37;100030.63;;;5.15;70.50
50682;BME280;36779;52.168;20.878;2023-03-15T09:16:10;100025.17;;;5.23;70.48
50682;BME280;36779;52.168;20.878;2023-03-15T09:18:40;100032.69;;;5.29;70.54
50682;BME280;36779;52.168;20.878;2023-03-15T09:21:11;100044.71;;;5.36;70.47
50682;BME280;36779;52.168;20.878;2023-03-15T09:23:42;100051.29;;;5.46;70.55
50682;BME280;36779;52.168;20.878;2023-03-15T09:26:11;100049.27;;;5.57;70.54
50682;BME280;36779;52.168;20.878;2023-03-15T09:28:42;100048.13;;;5.67;70.53
50682;BME280;36779;52.168;20.878;2023-03-15T09:31:11;100046.05;;;5.73;70.47
50682;BME280;36779;52.168;20.878;2023-03-15T09:33:40;100046.27;;;5.88;70.50
50682;BME280;36779;52.168;20.878;2023-03-15T09:36:13;100053.48;;;6.06;70.59
50682;BME280;36779;52.168;20.878;2023-03-15T09:38:43;100052.91;;;6.29;70.81
50682;BME280;36779;52.168;20.878;2023-03-15T09:41:16;100055.36;;;6.50;70.57
50682;BME280;36779;52.168;20.878;2023-03-15T09:44:11;100050.89;;;6.60;70.31
50682;BME280;36779;52.168;20.878;2023-03-15T09:46:51;100055.65;;;6.78;70.30
50682;BME280;36779;52.168;20.878;2023-03-15T09:49:33;100052.19;;;6.93;70.19
50682;BME280;36779;52.168;20.878;2023-03-15T09:52:14;100050.08;;;7.00;70.04
50682;BME280;36779;52.168;20.878;2023-03-15T09:54:52;100045.91;;;7.08;70.01
50682;BME280;36779;52.168;20.878;2023-03-15T09:57:34;100044.33;;;7.28;70.15
50682;BME280;36779;52.168;20.878;2023-03-15T10:00:11;100048.65;;;7.47;70.26
50682;BME280;36779;52.168;20.878;2023-03-15T10:02:44;100044.56;;;7.76;70.34
50682;BME280;36779;52.168;20.878;2023-03-15T10:05:21;100045.91;;;7.95;70.21
50682;BME280;36779;52.168;20.878;2023-03-15T10:07:53;100038.87;;;8.10;69.89
50682;BME280;36779;52.168;20.878;2023-03-15T10:10:35;100041.69;;;8.14;69.61
50682;BME280;36779;52.168;20.878;2023-03-15T10:13:15;100046.66;;;8.05;69.15
50682;BME280;36779;52.168;20.878;2023-03-15T10:15:58;100041.13;;;8.07;69.51
50682;BME280;36779;52.168;20.878;2023-03-15T10:18:44;100037.03;;;8.28;69.87
50682;BME280;36779;52.168;20.878;2023-03-15T10:21:32;100039.19;;;8.49;69.97
50682;BME280;36779;52.168;20.878;2023-03-15T10:24:13;100045.51;;;8.60;69.58
50682;BME280;36779;52.168;20.878;2023-03-15T10:26:43;100044.25;;;8.52;69.10
50682;BME280;36779;52.168;20.878;2023-03-15T10:29:20;100055.23;;;8.50;69.11
50682;BME280;36779;52.168;20.878;2023-03-15T10:31:54;100054.78;;;8.46;68.90
50682;BME280;36779;52.168;20.878;2023-03-15T10:34:23;100050.04;;;8.49;68.97
50682;BME280;36779;52.168;20.878;2023-03-15T10:36:55;100049.09;;;8.55;68.97
50682;BME280;36779;52.168;20.878;2023-03-15T10:39:25;100048.69;;;8.53;68.79
50682;BME280;36779;52.168;20.878;2023-03-15T10:41:59;100048.42;;;8.51;68.69
50682;BME280;36779;52.168;20.878;2023-03-15T10:44:53;100047.21;;;8.42;68.45
50682;BME280;36779;52.168;20.878;2023-03-15T10:47:26;100050.34;;;8.17;67.90
50682;BME280;36779;52.168;20.878;2023-03-15T10:49:57;100047.38;;;7.96;68.04
50682;BME280;36779;52.168;20.878;2023-03-15T10:52:33;100042.89;;;7.86;68.03
50682;BME280;36779;52.168;20.878;2023-03-15T10:55:10;100046.00;;;7.74;67.87
50682;BME280;36779;52.168;20.878;2023-03-15T10:57:50;100045.84;;;7.69;68.18
50682;BME280;36779;52.168;20.878;2023-03-15T11:00:26;100046.44;;;7.72;68.26
50682;BME280;36779;52.168;20.878;2023-03-15T11:03:05;100054.34;;;7.72;68.31
50682;BME280;36779;52.168;20.878;2023-03-15T11:05:41;100053.71;;;7.73;68.27
50682;BME280;36779;52.168;20.878;2023-03-15T11:08:13;100049.23;;;7.63;68.16
50682;BME280;36779;52.168;20.878;2023-03-15T11:10:44;100055.56;;;7.58;68.05
50682;BME280;36779;52.168;20.878;2023-03-15T11:13:18;100056.71;;;7.57;68.26
50682;BME280;36779;52.168;20.878;2023-03-15T11:15:55;100054.17;;;7.65;68.59
50682;BME280;36779;52.168;20.878;2023-03-15T11:18:28;100054.54;;;7.72;68.48
50682;BME280;36779;52.168;20.878;2023-03-15T11:21:00;100046.17;;;7.74;68.40
50682;BME280;36779;52.168;20.878;2023-03-15T11:23:34;100049.50;;;7.84;68.64
50682;BME280;36779;52.168;20.878;2023-03-15T11:26:08;100050.70;;;7.91;68.48
50682;BME280;36779;52.168;20.878;2023-03-15T11:29:06;100056.85;;;7.98;68.27
50682;BME280;36779;52.168;20.878;2023-03-15T11:31:41;100061.12;;;7.93;68.07
50682;BME280;36779;52.168;20.878;2023-03-15T11:34:16;100055.85;;;7.89;68.17
50682;BME280;36779;52.168;20.878;2023-03-15T11:36:55;100057.05;;;7.79;67.85
50682;BME280;36779;52.168;20.878;2023-03-15T11:39:40;100055.48;;;7.77;68.09
50682;BME280;36779;52.168;20.878;2023-03-15T11:42:18;100055.40;;;7.81;68.17
50682;BME280;36779;52.168;20.878;2023-03-15T11:44:52;100052.33;;;7.78;67.69
50682;BME280;36779;52.168;20.878;2023-03-15T11:47:33;100057.39;;;7.59;67.49
50682;BME280;36779;52.168;20.878;2023-03-15T11:50:05;100059.14;;;7.52;67.77
50682;BME280;36779;52.168;20.878;2023-03-15T11:52:34;100058.20;;;7.56;67.95
50682;BME280;36779;52.168;20.878;2023-03-15T11:55:13;100054.13;;;7.67;68.12
50682;BME280;36779;52.168;20.878;2023-03-15T11:57:45;100056.27;;;7.67;67.94
50682;BME280;36779;52.168;20.878;2023-03-15T12:09:00;100068.90;;;7.72;67.81
50682;BME280;36779;52.168;20.878;2023-03-15T12:11:40;100070.55;;;7.75;67.77
50682;BME280;36779;52.168;20.878;2023-03-15T12:14:31;100077.42;;;7.75;67.76
50682;BME280;36779;52.168;20.878;2023-03-15T12:17:35;100077.78;;;7.75;67.57
50682;BME280;36779;52.168;20.878;2023-03-15T12:20:16;100080.95;;;7.73;67.47
50682;BME280;36779;52.168;20.878;2023-03-15T12:22:50;100082.53;;;7.72;67.52
50682;BME280;36779;52.168;20.878;2023-03-15T12:25:33;100083.94;;;7.73;67.44
50682;BME280;36779;52.168;20.878;2023-03-15T12:28:20;100087.20;;;7.72;67.36
50682;BME280;36779;52.168;20.878;2023-03-15T12:30:56;100089.39;;;7.70;67.45
50682;BME280;36779;52.168;20.878;2023-03-15T12:33:26;100094.64;;;7.76;67.46
50682;BME280;36779;52.168;20.878;2023-03-15T12:36:01;100098.55;;;7.80;67.43
50682;BME280;36779;52.168;20.878;2023-03-15T12:38:37;100106.27;;;7.86;67.57
50682;BME280;36779;52.168;20.878;2023-03-15T12:41:38;100109.01;;;7.90;67.52
50682;BME280;36779;52.168;20.878;2023-03-15T12:44:26;100114.03;;;7.91;67.40
50682;BME280;36779;52.168;20.878;2023-03-15T12:47:08;100112.55;;;7.79;66.97
50682;BME280;36779;52.168;20.878;2023-03-15T12:49:40;100117.33;;;7.76;67.16
50682;BME280;36779;52.168;20.878;2023-03-15T12:52:31;100117.98;;;7.76;66.98
50682;BME280;36779;52.168;20.878;2023-03-15T12:55:12;100120.05;;;7.59;66.53
50682;BME280;36779;52.168;20.878;2023-03-15T12:57:47;100129.10;;;7.51;66.85
50682;BME280;36779;52.168;20.878;2023-03-15T13:00:20;100125.30;;;7.49;66.82
50682;BME280;36779;52.168;20.878;2023-03-15T13:02:54;100128.30;;;7.48;66.94
50682;BME280;36779;52.168;20.878;2023-03-15T13:05:32;100130.60;;;7.52;67.06
50682;BME280;36779;52.168;20.878;2023-03-15T13:08:08;100134.77;;;7.52;67.00
50682;BME280;36779;52.168;20.878;2023-03-15T13:10:43;100137.89;;;7.48;66.90
50682;BME280;36779;52.168;20.878;2023-03-15T13:13:28;100139.44;;;7.45;66.83
50682;BME280;36779;52.168;20.878;2023-03-15T13:16:19;100142.55;;;7.37;66.68
50682;BME280;36779;52.168;20.878;2023-03-15T13:18:59;100144.52;;;7.27;66.60
50682;BME280;36779;52.168;20.878;2023-03-15T13:21:37;100144.11;;;7.15;66.44
50682;BME280;36779;52.168;20.878;2023-03-15T13:24:15;100146.36;;;7.07;66.46
50682;BME280;36779;52.168;20.878;2023-03-15T13:26:55;100149.61;;;7.05;66.66
50682;BME280;36779;52.168;20.878;2023-03-15T13:29:32;100156.27;;;7.03;66.62
50682;BME280;36779;52.168;20.878;2023-03-15T13:32:07;100155.29;;;6.92;66.33
50682;BME280;36779;52.168;20.878;2023-03-15T13:34:42;100162.96;;;6.75;66.25
50682;BME280;36779;52.168;20.878;2023-03-15T13:37:15;100165.50;;;6.69;66.46
50682;BME280;36779;52.168;20.878;2023-03-15T13:39:58;100168.42;;;6.62;66.29
50682;BME280;36779;52.168;20.878;2023-03-15T13:42:27;100168.52;;;6.54;66.34
50682;BME280;36779;52.168;20.878;2023-03-15T13:45:10;100170.71;;;6.49;66.42
50682;BME280;36779;52.168;20.878;2023-03-15T13:47:41;100174.52;;;6.44;66.32
50682;BME280;36779;52.168;20.878;2023-03-15T13:50:14;100177.22;;;6.36;66.23
50682;BME280;36779;52.168;20.878;2023-03-15T13:52:44;100180.31;;;6.25;66.26